sensor_id;sensor_type;location;lat;lon;timestamp;pressure;altitude;pressure_sealevel;temperature;humidity
3780;BME280;1905;52.482;9.802;2024-01-30T00:01:09;102336.50;;;5.59;92.16
3780;BME280;1905;52.482;9.802;2024-01-30T00:03:39;102339.09;;;5.58;91.78
3780;BME280;1905;52.482;9.802;2024-01-30T00:06:07;102326.88;;;5.54;91.21
3780;BME280;1905;52.482;9.802;2024-01-30T00:08:35;102341.72;;;5.50;91.50
3780;BME280;1905;52.482;9.802;2024-01-30T00:11:03;102337.38;;;5.54;92.79
3780;BME280;1905;52.482;9.802;2024-01-30T00:13:31;102333.00;;;5.54;91.75
3780;BME280;1905;52.482;9.802;2024-01-30T00:15:59;102339.13;;;5.52;91.77
3780;BME280;1905;52.482;9.802;2024-01-30T00:18:27;102329.47;;;5.52;92.26
3780;BME280;1905;52.482;9.802;2024-01-30T00:20:56;102332.13;;;5.57;92.47
3780;BME280;1905;52.482;9.802;2024-01-30T00:23:24;102329.50;;;5.58;92.85
3780;BME280;1905;52.482;9.802;2024-01-30T00:25:52;102319.88;;;5.53;92.15
3780;BME280;1905;52.482;9.802;2024-01-30T00:28:19;102324.25;;;5.55;93.16
3780;BME280;1905;52.482;9.802;2024-01-30T00:30:47;102321.66;;;5.57;92.48
3780;BME280;1905;52.482;9.802;2024-01-30T00:33:15;102321.66;;;5.60;93.04
3780;BME280;1905;52.482;9.802;2024-01-30T00:35:43;102325.16;;;5.62;92.93
3780;BME280;1905;52.482;9.802;2024-01-30T00:38:12;102319.06;;;5.60;93.11
3780;BME280;1905;52.482;9.802;2024-01-30T00:40:41;102326.00;;;5.55;92.39
3780;BME280;1905;52.482;9.802;2024-01-30T00:43:08;102321.66;;;5.54;92.43
3780;BME280;1905;52.482;9.802;2024-01-30T00:45:36;102317.25;;;5.53;91.72
3780;BME280;1905;52.482;9.802;2024-01-30T00:48:04;102319.88;;;5.53;91.52
3780;BME280;1905;52.482;9.802;2024-01-30T00:50:32;102319.91;;;5.54;91.27
3780;BME280;1905;52.482;9.802;2024-01-30T00:53:00;102319.00;;;5.55;90.76
3780;BME280;1905;52.482;9.802;2024-01-30T00:55:29;102316.41;;;5.54;90.72
3780;BME280;1905;52.482;9.802;2024-01-30T00:57:57;102312.91;;;5.53;90.72
3780;BME280;1905;52.482;9.802;2024-01-30T01:00:25;102319.03;;;5.54;91.15
3780;BME280;1905;52.482;9.802;2024-01-30T01:02:55;102319.00;;;5.52;90.98
3780;BME280;1905;52.482;9.802;2024-01-30T01:05:23;102325.13;;;5.53;90.73
3780;BME280;1905;52.482;9.802;2024-01-30T01:07:51;102326.00;;;5.53;90.82
3780;BME280;1905;52.482;9.802;2024-01-30T01:10:19;102325.13;;;5.53;91.29
3780;BME280;1905;52.482;9.802;2024-01-30T01:12:48;102327.75;;;5.51;92.32
3780;BME280;1905;52.482;9.802;2024-01-30T01:15:16;102328.63;;;5.52;91.17
3780;BME280;1905;52.482;9.802;2024-01-30T01:17:44;102333.88;;;5.52;90.90
3780;BME280;1905;52.482;9.802;2024-01-30T01:20:11;102340.84;;;5.48;90.80
3780;BME280;1905;52.482;9.802;2024-01-30T01:22:39;102333.00;;;5.51;91.16
3780;BME280;1905;52.482;9.802;2024-01-30T01:25:08;102330.38;;;5.53;90.51
3780;BME280;1905;52.482;9.802;2024-01-30T01:27:36;102339.97;;;5.51;90.72
3780;BME280;1905;52.482;9.802;2024-01-30T01:30:10;102333.00;;;5.51;90.45
3780;BME280;1905;52.482;9.802;2024-01-30T01:32:40;102330.34;;;5.47;91.04
3780;BME280;1905;52.482;9.802;2024-01-30T01:35:15;102329.47;;;5.45;90.65
3780;BME280;1905;52.482;9.802;2024-01-30T01:37:43;102329.47;;;5.45;90.80
3780;BME280;1905;52.482;9.802;2024-01-30T01:40:11;102315.50;;;5.46;91.39
3780;BME280;1905;52.482;9.802;2024-01-30T01:42:39;102311.13;;;5.48;92.79
3780;BME280;1905;52.482;9.802;2024-01-30T01:45:07;102311.13;;;5.45;92.98
3780;BME280;1905;52.482;9.802;2024-01-30T01:47:36;102310.25;;;5.46;93.40
3780;BME280;1905;52.482;9.802;2024-01-30T01:50:04;102312.00;;;5.40;92.45
3780;BME280;1905;52.482;9.802;2024-01-30T01:52:33;102308.50;;;5.43;93.17
3780;BME280;1905;52.482;9.802;2024-01-30T01:55:01;102312.88;;;5.46;93.31
3780;BME280;1905;52.482;9.802;2024-01-30T01:57:28;102311.97;;;5.43;93.10
3780;BME280;1905;52.482;9.802;2024-01-30T01:59:56;102310.25;;;5.46;93.19
3780;BME280;1905;52.482;9.802;2024-01-30T02:02:25;102304.13;;;5.47;93.93
3780;BME280;1905;52.482;9.802;2024-01-30T02:04:56;102298.91;;;5.47;93.54
3780;BME280;1905;52.482;9.802;2024-01-30T02:07:27;102295.44;;;5.46;93.37
3780;BME280;1905;52.482;9.802;2024-01-30T02:09:55;102297.19;;;5.49;93.99
3780;BME280;1905;52.482;9.802;2024-01-30T02:12:23;102298.91;;;5.50;93.72
3780;BME280;1905;52.482;9.802;2024-01-30T02:14:50;102289.34;;;5.52;94.22
3780;BME280;1905;52.482;9.802;2024-01-30T02:17:18;102290.19;;;5.51;93.72
3780;BME280;1905;52.482;9.802;2024-01-30T02:19:46;102292.81;;;5.52;94.09
3780;BME280;1905;52.482;9.802;2024-01-30T02:22:16;102291.06;;;5.53;93.58
3780;BME280;1905;52.482;9.802;2024-01-30T02:24:44;102289.31;;;5.50;94.09
3780;BME280;1905;52.482;9.802;2024-01-30T02:27:12;102284.94;;;5.51;93.92
3780;BME280;1905;52.482;9.802;2024-01-30T02:29:40;102276.22;;;5.52;94.00
3780;BME280;1905;52.482;9.802;2024-01-30T02:32:08;102277.94;;;5.50;93.84
3780;BME280;1905;52.482;9.802;2024-01-30T02:34:35;102278.84;;;5.50;94.41
3780;BME280;1905;52.482;9.802;2024-01-30T02:37:03;102267.47;;;5.47;94.52
3780;BME280;1905;52.482;9.802;2024-01-30T02:39:32;102267.47;;;5.45;93.64
3780;BME280;1905;52.482;9.802;2024-01-30T02:42:00;102266.59;;;5.46;94.08
3780;BME280;1905;52.482;9.802;2024-01-30T02:44:28;102268.34;;;5.47;94.11
3780;BME280;1905;52.482;9.802;2024-01-30T02:46:55;102259.59;;;5.45;93.88
3780;BME280;1905;52.482;9.802;2024-01-30T02:49:23;102256.09;;;5.45;93.89
3780;BME280;1905;52.482;9.802;2024-01-30T02:51:51;102258.72;;;5.45;94.12
3780;BME280;1905;52.482;9.802;2024-01-30T02:54:19;102260.50;;;5.49;94.04
3780;BME280;1905;52.482;9.802;2024-01-30T02:56:48;102259.59;;;5.47;94.56
3780;BME280;1905;52.482;9.802;2024-01-30T02:59:15;102255.25;;;5.49;94.61
3780;BME280;1905;52.482;9.802;2024-01-30T03:01:43;102248.28;;;5.51;94.10
3780;BME280;1905;52.482;9.802;2024-01-30T03:04:12;102249.09;;;5.43;94.58
3780;BME280;1905;52.482;9.802;2024-01-30T03:06:44;102245.66;;;5.46;94.61
3780;BME280;1905;52.482;9.802;2024-01-30T03:09:15;102240.41;;;5.46;94.49
3780;BME280;1905;52.482;9.802;2024-01-30T03:11:43;102237.78;;;5.46;94.30
3780;BME280;1905;52.482;9.802;2024-01-30T03:14:12;102230.78;;;5.50;94.43
3780;BME280;1905;52.482;9.802;2024-01-30T03:16:40;102227.31;;;5.51;94.03
3780;BME280;1905;52.482;9.802;2024-01-30T03:19:07;102232.56;;;5.51;94.38
3780;BME280;1905;52.482;9.802;2024-01-30T03:21:35;102228.19;;;5.48;93.78
3780;BME280;1905;52.482;9.802;2024-01-30T03:24:04;102230.78;;;5.50;93.77
3780;BME280;1905;52.482;9.802;2024-01-30T03:26:31;102235.16;;;5.49;93.63
3780;BME280;1905;52.482;9.802;2024-01-30T03:28:59;102237.78;;;5.48;94.23
3780;BME280;1905;52.482;9.802;2024-01-30T03:31:28;102230.78;;;5.50;94.56
3780;BME280;1905;52.482;9.802;2024-01-30T03:33:56;102236.91;;;5.47;93.20
3780;BME280;1905;52.482;9.802;2024-01-30T03:36:24;102228.16;;;5.47;92.74
3780;BME280;1905;52.482;9.802;2024-01-30T03:38:52;102238.63;;;5.43;92.45
3780;BME280;1905;52.482;9.802;2024-01-30T03:41:20;102231.66;;;5.44;92.38
3780;BME280;1905;52.482;9.802;2024-01-30T03:43:47;102230.78;;;5.43;92.41
3780;BME280;1905;52.482;9.802;2024-01-30T03:46:15;102229.94;;;5.43;92.76
3780;BME280;1905;52.482;9.802;2024-01-30T03:48:44;102227.28;;;5.41;92.76
3780;BME280;1905;52.482;9.802;2024-01-30T03:51:12;102225.53;;;5.43;93.87
3780;BME280;1905;52.482;9.802;2024-01-30T03:53:41;102228.16;;;5.42;93.26
3780;BME280;1905;52.482;9.802;2024-01-30T03:56:09;102222.03;;;5.41;93.95
3780;BME280;1905;52.482;9.802;2024-01-30T03:58:37;102220.31;;;5.40;92.68
3780;BME280;1905;52.482;9.802;2024-01-30T04:01:04;102221.19;;;5.39;92.32
3780;BME280;1905;52.482;9.802;2024-01-30T04:03:32;102218.56;;;5.38;91.95
3780;BME280;1905;52.482;9.802;2024-01-30T04:06:01;102215.06;;;5.37;92.60
3780;BME280;1905;52.482;9.802;2024-01-30T04:08:29;102210.72;;;5.38;92.64
3780;BME280;1905;52.482;9.802;2024-01-30T04:10:56;102215.06;;;5.37;93.08
3780;BME280;1905;52.482;9.802;2024-01-30T04:13:24;102220.31;;;5.37;92.69
3780;BME280;1905;52.482;9.802;2024-01-30T04:15:52;102228.13;;;5.33;91.71
3780;BME280;1905;52.482;9.802;2024-01-30T04:18:21;102222.88;;;5.33;91.99
3780;BME280;1905;52.482;9.802;2024-01-30T04:20:48;102224.63;;;5.35;92.06
3780;BME280;1905;52.482;9.802;2024-01-30T04:23:17;102215.94;;;5.35;92.11
3780;BME280;1905;52.482;9.802;2024-01-30T04:25:45;102230.78;;;5.34;92.25
3780;BME280;1905;52.482;9.802;2024-01-30T04:28:13;102224.63;;;5.31;93.33
3780;BME280;1905;52.482;9.802;2024-01-30T04:30:40;102217.66;;;5.28;92.54
3780;BME280;1905;52.482;9.802;2024-01-30T04:33:08;102220.28;;;5.28;92.82
3780;BME280;1905;52.482;9.802;2024-01-30T04:35:36;102219.41;;;5.26;92.87
3780;BME280;1905;52.482;9.802;2024-01-30T04:38:03;102221.13;;;5.27;92.46
3780;BME280;1905;52.482;9.802;2024-01-30T04:40:32;102216.78;;;5.28;92.41
3780;BME280;1905;52.482;9.802;2024-01-30T04:43:00;102222.88;;;5.25;92.41
3780;BME280;1905;52.482;9.802;2024-01-30T04:45:28;102229.00;;;5.24;92.47
3780;BME280;1905;52.482;9.802;2024-01-30T04:47:56;102223.75;;;5.18;92.92
3780;BME280;1905;52.482;9.802;2024-01-30T04:50:24;102223.75;;;5.21;92.39
3780;BME280;1905;52.482;9.802;2024-01-30T04:52:53;102219.38;;;5.20;93.11
3780;BME280;1905;52.482;9.802;2024-01-30T04:55:20;102222.88;;;5.22;92.82
3780;BME280;1905;52.482;9.802;2024-01-30T04:57:50;102222.88;;;5.21;92.49
3780;BME280;1905;52.482;9.802;2024-01-30T05:00:18;102215.00;;;5.22;92.43
3780;BME280;1905;52.482;9.802;2024-01-30T05:02:46;102215.00;;;5.18;91.92
3780;BME280;1905;52.482;9.802;2024-01-30T05:05:14;102215.88;;;5.17;91.81
3780;BME280;1905;52.482;9.802;2024-01-30T05:07:43;102215.00;;;5.13;91.86
3780;BME280;1905;52.482;9.802;2024-01-30T05:10:10;102208.88;;;5.13;92.61
3780;BME280;1905;52.482;9.802;2024-01-30T05:12:38;102207.16;;;5.13;92.10
3780;BME280;1905;52.482;9.802;2024-01-30T05:15:09;102208.00;;;5.12;92.42
3780;BME280;1905;52.482;9.802;2024-01-30T05:17:36;102213.25;;;5.12;92.02
3780;BME280;1905;52.482;9.802;2024-01-30T05:20:06;102206.25;;;5.11;92.15
3780;BME280;1905;52.482;9.802;2024-01-30T05:22:34;102215.00;;;5.10;92.68
3780;BME280;1905;52.482;9.802;2024-01-30T05:25:02;102218.47;;;5.09;92.21
3780;BME280;1905;52.482;9.802;2024-01-30T05:27:30;102208.88;;;5.10;91.68
3780;BME280;1905;52.482;9.802;2024-01-30T05:29:58;102215.84;;;5.09;91.99
3780;BME280;1905;52.482;9.802;2024-01-30T05:32:27;102213.22;;;5.06;92.38
3780;BME280;1905;52.482;9.802;2024-01-30T05:34:55;102218.44;;;5.03;92.58
3780;BME280;1905;52.482;9.802;2024-01-30T05:37:22;102213.22;;;5.05;92.02
3780;BME280;1905;52.482;9.802;2024-01-30T05:39:50;102206.22;;;5.02;92.08
3780;BME280;1905;52.482;9.802;2024-01-30T05:42:18;102216.72;;;5.02;91.64
3780;BME280;1905;52.482;9.802;2024-01-30T05:44:46;102211.47;;;4.99;91.68
3780;BME280;1905;52.482;9.802;2024-01-30T05:47:13;102208.81;;;5.01;91.47
3780;BME280;1905;52.482;9.802;2024-01-30T05:49:43;102208.84;;;4.99;91.70
3780;BME280;1905;52.482;9.802;2024-01-30T05:52:11;102214.03;;;4.98;91.61
3780;BME280;1905;52.482;9.802;2024-01-30T05:54:38;102214.91;;;4.95;91.91
3780;BME280;1905;52.482;9.802;2024-01-30T05:57:06;102217.53;;;4.98;92.06
3780;BME280;1905;52.482;9.802;2024-01-30T05:59:34;102214.94;;;4.98;92.25
3780;BME280;1905;52.482;9.802;2024-01-30T06:02:06;102211.44;;;4.96;92.08
3780;BME280;1905;52.482;9.802;2024-01-30T06:04:34;102209.69;;;4.98;91.78
3780;BME280;1905;52.482;9.802;2024-01-30T06:07:03;102205.31;;;4.96;92.20
3780;BME280;1905;52.482;9.802;2024-01-30T06:09:32;102207.94;;;4.96;91.84
3780;BME280;1905;52.482;9.802;2024-01-30T06:12:00;102202.69;;;4.93;92.08
3780;BME280;1905;52.482;9.802;2024-01-30T06:14:27;102199.19;;;4.92;92.50
3780;BME280;1905;52.482;9.802;2024-01-30T06:16:55;102188.72;;;4.92;92.60
3780;BME280;1905;52.482;9.802;2024-01-30T06:19:23;102192.22;;;4.91;92.71
3780;BME280;1905;52.482;9.802;2024-01-30T06:21:51;102193.97;;;4.92;92.35
3780;BME280;1905;52.482;9.802;2024-01-30T06:24:20;102193.09;;;4.90;92.05
3780;BME280;1905;52.482;9.802;2024-01-30T06:26:47;102187.84;;;4.89;92.07
3780;BME280;1905;52.482;9.802;2024-01-30T06:29:15;102192.22;;;4.88;93.38
3780;BME280;1905;52.482;9.802;2024-01-30T06:31:46;102186.13;;;4.89;92.28
3780;BME280;1905;52.482;9.802;2024-01-30T06:34:13;102184.38;;;4.88;92.98
3780;BME280;1905;52.482;9.802;2024-01-30T06:36:41;102183.50;;;4.89;92.43
3780;BME280;1905;52.482;9.802;2024-01-30T06:39:09;102181.75;;;4.88;92.86
3780;BME280;1905;52.482;9.802;2024-01-30T06:41:38;102180.00;;;4.89;93.32
3780;BME280;1905;52.482;9.802;2024-01-30T06:44:06;102182.59;;;4.87;94.28
3780;BME280;1905;52.482;9.802;2024-01-30T06:46:35;102187.84;;;4.86;93.11
3780;BME280;1905;52.482;9.802;2024-01-30T06:49:03;102183.47;;;4.83;94.36
3780;BME280;1905;52.482;9.802;2024-01-30T06:51:31;102181.72;;;4.82;94.04
3780;BME280;1905;52.482;9.802;2024-01-30T06:53:59;102179.13;;;4.84;95.11
3780;BME280;1905;52.482;9.802;2024-01-30T06:56:26;102174.75;;;4.84;94.25
3780;BME280;1905;52.482;9.802;2024-01-30T06:58:55;102183.47;;;4.83;93.47
3780;BME280;1905;52.482;9.802;2024-01-30T07:01:27;102182.59;;;4.84;93.08
3780;BME280;1905;52.482;9.802;2024-01-30T07:03:55;102188.72;;;4.83;92.56
3780;BME280;1905;52.482;9.802;2024-01-30T07:06:23;102186.97;;;4.85;92.39
3780;BME280;1905;52.482;9.802;2024-01-30T07:08:51;102195.69;;;4.87;95.26
3780;BME280;1905;52.482;9.802;2024-01-30T07:11:18;102191.34;;;4.88;95.05
3780;BME280;1905;52.482;9.802;2024-01-30T07:13:46;102176.50;;;4.87;95.27
3780;BME280;1905;52.482;9.802;2024-01-30T07:16:16;102190.47;;;4.90;94.87
3780;BME280;1905;52.482;9.802;2024-01-30T07:18:43;102189.63;;;4.91;95.88
3780;BME280;1905;52.482;9.802;2024-01-30T07:21:11;102186.13;;;4.94;96.11
3780;BME280;1905;52.482;9.802;2024-01-30T07:23:39;102189.63;;;4.94;95.91
3780;BME280;1905;52.482;9.802;2024-01-30T07:26:07;102187.88;;;4.96;95.96
3780;BME280;1905;52.482;9.802;2024-01-30T07:28:35;102191.38;;;4.98;95.76
3780;BME280;1905;52.482;9.802;2024-01-30T07:31:03;102193.09;;;4.95;95.33
3780;BME280;1905;52.482;9.802;2024-01-30T07:33:32;102180.91;;;5.00;95.94
3780;BME280;1905;52.482;9.802;2024-01-30T07:36:00;102185.28;;;4.99;95.29
3780;BME280;1905;52.482;9.802;2024-01-30T07:38:28;102190.50;;;4.96;94.87
3780;BME280;1905;52.482;9.802;2024-01-30T07:40:56;102186.16;;;5.00;94.80
3780;BME280;1905;52.482;9.802;2024-01-30T07:43:23;102192.25;;;5.03;95.93
3780;BME280;1905;52.482;9.802;2024-01-30T07:45:51;102188.75;;;5.01;94.96
3780;BME280;1905;52.482;9.802;2024-01-30T07:48:19;102194.00;;;5.04;95.82
3780;BME280;1905;52.482;9.802;2024-01-30T07:50:49;102190.53;;;5.11;96.00
3780;BME280;1905;52.482;9.802;2024-01-30T07:53:16;102190.56;;;5.13;95.07
3780;BME280;1905;52.482;9.802;2024-01-30T07:55:44;102193.16;;;5.14;95.40
3780;BME280;1905;52.482;9.802;2024-01-30T07:58:13;102188.81;;;5.13;95.70
3780;BME280;1905;52.482;9.802;2024-01-30T08:00:40;102186.22;;;5.21;95.84
3780;BME280;1905;52.482;9.802;2024-01-30T08:03:08;102181.84;;;5.27;95.83
3780;BME280;1905;52.482;9.802;2024-01-30T08:05:36;102175.75;;;5.28;95.86
3780;BME280;1905;52.482;9.802;2024-01-30T08:08:07;102177.50;;;5.29;96.04
3780;BME280;1905;52.482;9.802;2024-01-30T08:10:34;102171.38;;;5.33;96.14
3780;BME280;1905;52.482;9.802;2024-01-30T08:13:02;102168.78;;;5.35;95.50
3780;BME280;1905;52.482;9.802;2024-01-30T08:15:30;102175.78;;;5.37;95.62
3780;BME280;1905;52.482;9.802;2024-01-30T08:17:57;102164.41;;;5.41;96.14
3780;BME280;1905;52.482;9.802;2024-01-30T08:20:25;102164.44;;;5.51;96.14
3780;BME280;1905;52.482;9.802;2024-01-30T08:22:53;102167.06;;;5.55;96.03
3780;BME280;1905;52.482;9.802;2024-01-30T08:25:22;102166.19;;;5.58;96.02
3780;BME280;1905;52.482;9.802;2024-01-30T08:27:50;102163.56;;;5.67;96.16
3780;BME280;1905;52.482;9.802;2024-01-30T08:30:19;102156.59;;;5.73;96.11
3780;BME280;1905;52.482;9.802;2024-01-30T08:32:46;102163.59;;;5.76;95.97
3780;BME280;1905;52.482;9.802;2024-01-30T08:35:14;102158.31;;;5.80;96.25
3780;BME280;1905;52.482;9.802;2024-01-30T08:37:43;102159.22;;;5.84;95.53
3780;BME280;1905;52.482;9.802;2024-01-30T08:40:10;102158.38;;;5.89;96.55
3780;BME280;1905;52.482;9.802;2024-01-30T08:42:39;102158.34;;;5.92;95.94
3780;BME280;1905;52.482;9.802;2024-01-30T08:45:08;102170.59;;;5.96;95.85
3780;BME280;1905;52.482;9.802;2024-01-30T08:47:36;102165.31;;;6.01;96.00
3780;BME280;1905;52.482;9.802;2024-01-30T08:50:05;102165.34;;;6.06;96.29
3780;BME280;1905;52.482;9.802;2024-01-30T08:52:33;102171.44;;;6.09;95.94
3780;BME280;1905;52.482;9.802;2024-01-30T08:55:01;102164.47;;;6.11;95.94
3780;BME280;1905;52.482;9.802;2024-01-30T08:57:29;102160.94;;;6.15;96.10
3780;BME280;1905;52.482;9.802;2024-01-30T08:59:58;102157.44;;;6.19;95.58
3780;BME280;1905;52.482;9.802;2024-01-30T09:02:26;102155.69;;;6.27;95.28
3780;BME280;1905;52.482;9.802;2024-01-30T09:04:54;102156.53;;;6.34;95.90
3780;BME280;1905;52.482;9.802;2024-01-30T09:07:22;102159.16;;;6.38;95.40
3780;BME280;1905;52.482;9.802;2024-01-30T09:09:50;102156.50;;;6.43;95.86
3780;BME280;1905;52.482;9.802;2024-01-30T09:12:17;102157.38;;;6.46;95.36
3780;BME280;1905;52.482;9.802;2024-01-30T09:14:45;102150.34;;;6.51;95.83
3780;BME280;1905;52.482;9.802;2024-01-30T09:17:14;102164.31;;;6.59;95.32
3780;BME280;1905;52.482;9.802;2024-01-30T09:19:41;102155.53;;;6.64;94.59
3780;BME280;1905;52.482;9.802;2024-01-30T09:22:09;102161.66;;;6.70;94.55
3780;BME280;1905;52.482;9.802;2024-01-30T09:24:37;102155.50;;;6.76;94.58
3780;BME280;1905;52.482;9.802;2024-01-30T09:27:04;102159.88;;;6.77;95.21
3780;BME280;1905;52.482;9.802;2024-01-30T09:29:32;102164.22;;;6.81;95.47
3780;BME280;1905;52.482;9.802;2024-01-30T09:32:00;102152.84;;;6.86;95.38
3780;BME280;1905;52.482;9.802;2024-01-30T09:34:29;102157.16;;;6.95;94.67
3780;BME280;1905;52.482;9.802;2024-01-30T09:36:58;102158.00;;;7.03;93.80
3780;BME280;1905;52.482;9.802;2024-01-30T09:39:26;102165.84;;;7.09;94.14
3780;BME280;1905;52.482;9.802;2024-01-30T09:42:01;102163.22;;;7.12;93.95
3780;BME280;1905;52.482;9.802;2024-01-30T09:44:30;102164.06;;;7.14;93.81
3780;BME280;1905;52.482;9.802;2024-01-30T09:46:58;102165.75;;;7.21;94.40
3780;BME280;1905;52.482;9.802;2024-01-30T09:49:31;102158.75;;;7.25;93.76
3780;BME280;1905;52.482;9.802;2024-01-30T09:52:00;102163.97;;;7.31;93.45
3780;BME280;1905;52.482;9.802;2024-01-30T09:54:29;102165.69;;;7.32;94.30
3780;BME280;1905;52.482;9.802;2024-01-30T09:57:02;102155.19;;;7.36;93.57
3780;BME280;1905;52.482;9.802;2024-01-30T09:59:30;102157.72;;;7.45;92.69
3780;BME280;1905;52.482;9.802;2024-01-30T10:01:57;102162.09;;;7.46;93.16
3780;BME280;1905;52.482;9.802;2024-01-30T10:04:25;102159.44;;;7.51;93.34
3780;BME280;1905;52.482;9.802;2024-01-30T10:06:55;102160.28;;;7.57;93.21
3780;BME280;1905;52.482;9.802;2024-01-30T10:09:22;102161.97;;;7.61;92.61
3780;BME280;1905;52.482;9.802;2024-01-30T10:11:51;102155.81;;;7.65;93.40
3780;BME280;1905;52.482;9.802;2024-01-30T10:14:18;102148.72;;;7.75;92.60
3780;BME280;1905;52.482;9.802;2024-01-30T10:16:46;102138.22;;;7.76;92.84
3780;BME280;1905;52.482;9.802;2024-01-30T10:19:14;102139.91;;;7.80;92.77
3780;BME280;1905;52.482;9.802;2024-01-30T10:21:42;102147.75;;;7.87;92.30
3780;BME280;1905;52.482;9.802;2024-01-30T10:24:11;102139.78;;;7.94;92.51
3780;BME280;1905;52.482;9.802;2024-01-30T10:26:39;102133.63;;;7.97;92.78
3780;BME280;1905;52.482;9.802;2024-01-30T10:29:06;102134.44;;;8.03;92.34
3780;BME280;1905;52.482;9.802;2024-01-30T10:31:35;102140.56;;;8.07;91.79
3780;BME280;1905;52.482;9.802;2024-01-30T10:34:03;102131.69;;;8.14;91.75
3780;BME280;1905;52.482;9.802;2024-01-30T10:36:46;102129.91;;;8.16;92.25
3780;BME280;1905;52.482;9.802;2024-01-30T10:39:20;102129.88;;;8.22;92.25
3780;BME280;1905;52.482;9.802;2024-01-30T10:41:50;102124.56;;;8.28;91.96
3780;BME280;1905;52.482;9.802;2024-01-30T10:44:23;102128.06;;;8.30;91.27
3780;BME280;1905;52.482;9.802;2024-01-30T10:46:58;102120.06;;;8.37;91.51
3780;BME280;1905;52.482;9.802;2024-01-30T10:49:28;102133.19;;;8.42;91.21
3780;BME280;1905;52.482;9.802;2024-01-30T10:51:57;102131.34;;;8.50;90.85
3780;BME280;1905;52.482;9.802;2024-01-30T10:54:27;102133.94;;;8.53;89.77
3780;BME280;1905;52.482;9.802;2024-01-30T10:56:57;102125.94;;;8.59;90.73
3780;BME280;1905;52.482;9.802;2024-01-30T10:59:26;102130.28;;;8.62;89.86
3780;BME280;1905;52.482;9.802;2024-01-30T11:01:54;102131.09;;;8.68;90.51
3780;BME280;1905;52.482;9.802;2024-01-30T11:04:22;102125.78;;;8.73;89.67
3780;BME280;1905;52.482;9.802;2024-01-30T11:06:52;102123.09;;;8.77;90.78
3780;BME280;1905;52.482;9.802;2024-01-30T11:09:20;102120.34;;;8.83;89.60
3780;BME280;1905;52.482;9.802;2024-01-30T11:11:51;102119.44;;;8.86;89.68
3780;BME280;1905;52.482;9.802;2024-01-30T11:14:25;102118.50;;;8.91;89.23
3780;BME280;1905;52.482;9.802;2024-01-30T11:16:53;102111.41;;;8.96;88.71
3780;BME280;1905;52.482;9.802;2024-01-30T11:19:23;102118.41;;;8.99;89.19
3780;BME280;1905;52.482;9.802;2024-01-30T11:21:52;102107.78;;;9.04;89.91
3780;BME280;1905;52.482;9.802;2024-01-30T11:24:21;102105.06;;;9.10;88.33
3780;BME280;1905;52.482;9.802;2024-01-30T11:26:55;102102.41;;;9.13;90.12
3780;BME280;1905;52.482;9.802;2024-01-30T11:29:24;102107.63;;;9.16;89.20
3780;BME280;1905;52.482;9.802;2024-01-30T11:31:52;102092.56;;;9.22;89.47
3780;BME280;1905;52.482;9.802;2024-01-30T11:34:20;102096.94;;;9.25;88.48
3780;BME280;1905;52.482;9.802;2024-01-30T11:36:52;102105.63;;;9.30;88.46
3780;BME280;1905;52.482;9.802;2024-01-30T11:39:26;102098.50;;;9.35;89.17
3780;BME280;1905;52.482;9.802;2024-01-30T11:41:55;102103.75;;;9.38;88.25
3780;BME280;1905;52.482;9.802;2024-01-30T11:44:23;102097.50;;;9.43;88.57
3780;BME280;1905;52.482;9.802;2024-01-30T11:46:52;102090.47;;;9.45;88.61
3780;BME280;1905;52.482;9.802;2024-01-30T11:49:19;102087.75;;;9.50;88.10
3780;BME280;1905;52.482;9.802;2024-01-30T11:51:48;102089.41;;;9.54;87.78
3780;BME280;1905;52.482;9.802;2024-01-30T11:54:16;102093.72;;;9.59;87.62
3780;BME280;1905;52.482;9.802;2024-01-30T11:56:44;102082.19;;;9.65;89.36
3780;BME280;1905;52.482;9.802;2024-01-30T11:59:13;102090.94;;;9.69;88.69
3780;BME280;1905;52.482;9.802;2024-01-30T12:01:41;102081.19;;;9.72;87.53
3780;BME280;1905;52.482;9.802;2024-01-30T12:04:09;102071.38;;;9.80;86.82
3780;BME280;1905;52.482;9.802;2024-01-30T12:06:37;102065.19;;;9.83;87.70
3780;BME280;1905;52.482;9.802;2024-01-30T12:09:06;102056.22;;;9.91;87.23
3780;BME280;1905;52.482;9.802;2024-01-30T12:11:43;102064.00;;;9.97;87.69
3780;BME280;1905;52.482;9.802;2024-01-30T12:14:13;102061.25;;;10.03;87.10
3780;BME280;1905;52.482;9.802;2024-01-30T12:16:41;102060.31;;;10.07;87.39
3780;BME280;1905;52.482;9.802;2024-01-30T12:19:09;102063.69;;;10.15;86.99
3780;BME280;1905;52.482;9.802;2024-01-30T12:21:38;102065.31;;;10.23;86.40
3780;BME280;1905;52.482;9.802;2024-01-30T12:24:06;102075.91;;;10.21;87.71
3780;BME280;1905;52.482;9.802;2024-01-30T12:26:34;102082.84;;;10.27;88.06
3780;BME280;1905;52.482;9.802;2024-01-30T12:29:03;102091.59;;;10.29;87.66
3780;BME280;1905;52.482;9.802;2024-01-30T12:31:33;102086.25;;;10.32;86.22
3780;BME280;1905;52.482;9.802;2024-01-30T12:34:01;102094.94;;;10.37;86.90
3780;BME280;1905;52.482;9.802;2024-01-30T12:36:29;102092.22;;;10.41;86.81
3780;BME280;1905;52.482;9.802;2024-01-30T12:38:57;102093.91;;;10.45;86.44
3780;BME280;1905;52.482;9.802;2024-01-30T12:41:25;102097.34;;;10.49;86.79
3780;BME280;1905;52.482;9.802;2024-01-30T12:43:57;102092.03;;;10.50;86.77
3780;BME280;1905;52.482;9.802;2024-01-30T12:46:27;102084.00;;;10.55;87.17
3780;BME280;1905;52.482;9.802;2024-01-30T12:48:57;102083.06;;;10.57;86.47
3780;BME280;1905;52.482;9.802;2024-01-30T12:51:25;102079.47;;;10.61;86.81
3780;BME280;1905;52.482;9.802;2024-01-30T12:53:53;102084.69;;;10.64;86.53
3780;BME280;1905;52.482;9.802;2024-01-30T12:56:20;102086.34;;;10.68;88.12
3780;BME280;1905;52.482;9.802;2024-01-30T12:58:48;102088.97;;;10.70;86.69
3780;BME280;1905;52.482;9.802;2024-01-30T13:01:19;102086.16;;;10.77;86.62
3780;BME280;1905;52.482;9.802;2024-01-30T13:03:47;102083.47;;;10.81;86.69
3780;BME280;1905;52.482;9.802;2024-01-30T13:06:16;102077.16;;;10.86;86.20
3780;BME280;1905;52.482;9.802;2024-01-30T13:08:44;102088.56;;;10.88;87.67
3780;BME280;1905;52.482;9.802;2024-01-30T13:11:12;102087.59;;;10.92;86.45
3780;BME280;1905;52.482;9.802;2024-01-30T13:13:47;102084.88;;;10.95;87.34
3780;BME280;1905;52.482;9.802;2024-01-30T13:16:15;102089.19;;;10.99;87.08
3780;BME280;1905;52.482;9.802;2024-01-30T13:18:43;102081.13;;;11.05;86.64
3780;BME280;1905;52.482;9.802;2024-01-30T13:21:11;102089.81;;;11.10;87.04
3780;BME280;1905;52.482;9.802;2024-01-30T13:23:40;102086.19;;;11.14;87.12
3780;BME280;1905;52.482;9.802;2024-01-30T13:26:08;102088.81;;;11.16;86.04